sensor_id;sensor_type;location;lat;lon;timestamp;temperature;humidity
16523;DHT22;19889;52.546;13.348;2023-02-28T00:00:23;4.60;99.90
16523;DHT22;19889;52.546;13.348;2023-02-28T00:02:50;4.60;99.90
16523;DHT22;19889;52.546;13.348;2023-02-28T00:05:20;4.60;99.90
16523;DHT22;19889;52.546;13.348;2023-02-28T00:07:47;4.60;99.90
16523;DHT22;19889;52.546;13.348;2023-02-28T00:12:46;4.60;99.90
16523;DHT22;19889;52.546;13.348;2023-02-28T00:15:13;4.80;99.90
16523;DHT22;19889;52.546;13.348;2023-02-28T00:17:40;4.70;99.90
16523;DHT22;19889;52.546;13.348;2023-02-28T00:20:09;4.60;99.90
16523;DHT22;19889;52.546;13.348;2023-02-28T00:22:38;4.60;99.90
16523;DHT22;19889;52.546;13.348;2023-02-28T00:25:06;4.60;99.90
16523;DHT22;19889;52.546;13.348;2023-02-28T00:27:34;4.60;99.90
16523;DHT22;19889;52.546;13.348;2023-02-28T00:30:07;4.60;99.90
16523;DHT22;19889;52.546;13.348;2023-02-28T00:32:36;4.60;99.90
16523;DHT22;19889;52.546;13.348;2023-02-28T00:35:05;4.60;99.90
16523;DHT22;19889;52.546;13.348;2023-02-28T00:37:33;4.60;99.90
16523;DHT22;19889;52.546;13.348;2023-02-28T00:40:00;4.60;99.90
16523;DHT22;19889;52.546;13.348;2023-02-28T00:42:30;4.60;99.90
16523;DHT22;19889;52.546;13.348;2023-02-28T00:44:57;4.60;99.90
16523;DHT22;19889;52.546;13.348;2023-02-28T00:47:26;4.50;99.90
16523;DHT22;19889;52.546;13.348;2023-02-28T00:49:53;4.60;99.90
16523;DHT22;19889;52.546;13.348;2023-02-28T00:52:20;4.60;99.90
16523;DHT22;19889;52.546;13.348;2023-02-28T00:54:47;4.60;99.90
16523;DHT22;19889;52.546;13.348;2023-02-28T00:57:14;4.60;99.90
16523;DHT22;19889;52.546;13.348;2023-02-28T00:59:41;4.60;99.90
16523;DHT22;19889;52.546;13.348;2023-02-28T01:02:08;4.60;99.90
16523;DHT22;19889;52.546;13.348;2023-02-28T01:04:37;5.00;99.90
16523;DHT22;19889;52.546;13.348;2023-02-28T01:07:04;4.50;99.90
16523;DHT22;19889;52.546;13.348;2023-02-28T01:09:31;4.50;99.90
16523;DHT22;19889;52.546;13.348;2023-02-28T01:11:58;4.70;99.90
16523;DHT22;19889;52.546;13.348;2023-02-28T01:14:25;4.60;99.90
16523;DHT22;19889;52.546;13.348;2023-02-28T01:16:52;4.60;99.90
16523;DHT22;19889;52.546;13.348;2023-02-28T01:19:19;4.60;99.90
16523;DHT22;19889;52.546;13.348;2023-02-28T01:21:47;4.60;99.90
16523;DHT22;19889;52.546;13.348;2023-02-28T01:24:14;4.60;99.90
16523;DHT22;19889;52.546;13.348;2023-02-28T01:26:41;4.60;99.90
16523;DHT22;19889;52.546;13.348;2023-02-28T01:29:08;4.60;99.90
16523;DHT22;19889;52.546;13.348;2023-02-28T01:31:35;4.70;99.90
16523;DHT22;19889;52.546;13.348;2023-02-28T01:34:02;4.60;99.90
16523;DHT22;19889;52.546;13.348;2023-02-28T01:36:30;5.40;99.90
16523;DHT22;19889;52.546;13.348;2023-02-28T01:38:58;4.60;99.90
16523;DHT22;19889;52.546;13.348;2023-02-28T01:41:27;4.50;99.90
16523;DHT22;19889;52.546;13.348;2023-02-28T01:44:01;4.50;99.90
16523;DHT22;19889;52.546;13.348;2023-02-28T01:46:30;4.50;99.90
16523;DHT22;19889;52.546;13.348;2023-02-28T01:49:02;4.50;99.90
16523;DHT22;19889;52.546;13.348;2023-02-28T01:51:34;4.50;99.90
16523;DHT22;19889;52.546;13.348;2023-02-28T01:54:08;4.50;99.90
16523;DHT22;19889;52.546;13.348;2023-02-28T01:56:43;4.60;99.90
16523;DHT22;19889;52.546;13.348;2023-02-28T01:59:12;4.50;99.90
16523;DHT22;19889;52.546;13.348;2023-02-28T02:01:41;4.50;99.90
16523;DHT22;19889;52.546;13.348;2023-02-28T02:04:08;4.70;99.90
16523;DHT22;19889;52.546;13.348;2023-02-28T02:06:39;4.50;99.90
16523;DHT22;19889;52.546;13.348;2023-02-28T02:09:12;4.50;99.90
16523;DHT22;19889;52.546;13.348;2023-02-28T02:11:40;4.90;99.90
16523;DHT22;19889;52.546;13.348;2023-02-28T02:14:30;4.40;99.90
16523;DHT22;19889;52.546;13.348;2023-02-28T02:17:14;4.40;99.90
16523;DHT22;19889;52.546;13.348;2023-02-28T02:25:45;4.40;99.90
16523;DHT22;19889;52.546;13.348;2023-02-28T02:28:46;4.30;99.90
16523;DHT22;19889;52.546;13.348;2023-02-28T02:31:57;4.30;99.90
16523;DHT22;19889;52.546;13.348;2023-02-28T02:34:42;4.30;99.90
16523;DHT22;19889;52.546;13.348;2023-02-28T02:37:24;4.30;99.90
16523;DHT22;19889;52.546;13.348;2023-02-28T02:40:04;4.20;99.90
16523;DHT22;19889;52.546;13.348;2023-02-28T02:42:40;4.20;99.90
16523;DHT22;19889;52.546;13.348;2023-02-28T02:45:12;4.10;99.90
16523;DHT22;19889;52.546;13.348;2023-02-28T02:47:42;4.10;99.90
16523;DHT22;19889;52.546;13.348;2023-02-28T02:50:15;4.40;99.90
16523;DHT22;19889;52.546;13.348;2023-02-28T02:52:47;3.90;99.90
16523;DHT22;19889;52.546;13.348;2023-02-28T02:55:17;4.10;99.90
16523;DHT22;19889;52.546;13.348;2023-02-28T02:57:48;4.00;99.90
16523;DHT22;19889;52.546;13.348;2023-02-28T03:00:18;4.00;99.90
16523;DHT22;19889;52.546;13.348;2023-02-28T03:02:47;4.00;99.90
16523;DHT22;19889;52.546;13.348;2023-02-28T03:05:21;3.90;99.90
16523;DHT22;19889;52.546;13.348;2023-02-28T03:07:50;4.00;99.90
16523;DHT22;19889;52.546;13.348;2023-02-28T03:10:32;3.90;99.90
16523;DHT22;19889;52.546;13.348;2023-02-28T03:16:01;3.90;99.90
16523;DHT22;19889;52.546;13.348;2023-02-28T03:18:42;3.80;99.90
16523;DHT22;19889;52.546;13.348;2023-02-28T03:21:18;3.90;99.90
16523;DHT22;19889;52.546;13.348;2023-02-28T03:23:54;3.80;99.90
16523;DHT22;19889;52.546;13.348;2023-02-28T03:26:26;3.70;99.90
16523;DHT22;19889;52.546;13.348;2023-02-28T03:29:00;4.20;99.90
16523;DHT22;19889;52.546;13.348;2023-02-28T03:31:32;4.50;99.90
16523;DHT22;19889;52.546;13.348;2023-02-28T03:34:03;3.70;99.90
16523;DHT22;19889;52.546;13.348;2023-02-28T03:36:36;4.40;99.90
16523;DHT22;19889;52.546;13.348;2023-02-28T03:39:13;3.40;99.90
16523;DHT22;19889;52.546;13.348;2023-02-28T03:41:43;3.60;99.90
16523;DHT22;19889;52.546;13.348;2023-02-28T03:44:16;3.60;99.90
16523;DHT22;19889;52.546;13.348;2023-02-28T03:46:48;3.60;99.90
16523;DHT22;19889;52.546;13.348;2023-02-28T03:49:21;3.60;99.90
16523;DHT22;19889;52.546;13.348;2023-02-28T03:51:51;3.40;99.90
16523;DHT22;19889;52.546;13.348;2023-02-28T03:54:21;3.30;99.90
16523;DHT22;19889;52.546;13.348;2023-02-28T03:56:52;3.50;99.90
16523;DHT22;19889;52.546;13.348;2023-02-28T03:59:22;3.40;99.90
16523;DHT22;19889;52.546;13.348;2023-02-28T04:01:51;3.40;99.90
16523;DHT22;19889;52.546;13.348;2023-02-28T04:04:18;3.60;99.90
16523;DHT22;19889;52.546;13.348;2023-02-28T04:06:45;3.40;99.90
16523;DHT22;19889;52.546;13.348;2023-02-28T04:09:14;3.40;99.90
16523;DHT22;19889;52.546;13.348;2023-02-28T04:11:42;3.40;99.90
16523;DHT22;19889;52.546;13.348;2023-02-28T04:14:11;3.40;99.90
16523;DHT22;19889;52.546;13.348;2023-02-28T04:16:40;3.40;99.90
16523;DHT22;19889;52.546;13.348;2023-02-28T04:19:10;3.40;99.90
16523;DHT22;19889;52.546;13.348;2023-02-28T04:21:39;4.20;99.90
16523;DHT22;19889;52.546;13.348;2023-02-28T04:24:08;4.00;99.90
16523;DHT22;19889;52.546;13.348;2023-02-28T04:26:42;3.40;99.90
16523;DHT22;19889;52.546;13.348;2023-02-28T04:29:12;3.50;99.90
16523;DHT22;19889;52.546;13.348;2023-02-28T04:31:39;3.30;99.90
16523;DHT22;19889;52.546;13.348;2023-02-28T04:34:06;3.30;99.90
16523;DHT22;19889;52.546;13.348;2023-02-28T04:36:33;3.30;99.90
16523;DHT22;19889;52.546;13.348;2023-02-28T04:39:00;3.00;99.90
16523;DHT22;19889;52.546;13.348;2023-02-28T04:41:27;3.30;99.90
16523;DHT22;19889;52.546;13.348;2023-02-28T04:43:55;3.20;99.90
16523;DHT22;19889;52.546;13.348;2023-02-28T04:46:23;3.30;99.90
16523;DHT22;19889;52.546;13.348;2023-02-28T04:48:50;3.00;99.90
16523;DHT22;19889;52.546;13.348;2023-02-28T04:51:18;3.10;99.90
16523;DHT22;19889;52.546;13.348;2023-02-28T04:53:46;3.40;99.90
16523;DHT22;19889;52.546;13.348;2023-02-28T04:56:15;3.20;99.90
16523;DHT22;19889;52.546;13.348;2023-02-28T04:58:43;3.20;99.90
16523;DHT22;19889;52.546;13.348;2023-02-28T05:01:19;3.20;99.90
16523;DHT22;19889;52.546;13.348;2023-02-28T05:03:47;2.80;99.90
16523;DHT22;19889;52.546;13.348;2023-02-28T05:06:16;3.10;99.90
16523;DHT22;19889;52.546;13.348;2023-02-28T05:08:43;3.10;99.90
16523;DHT22;19889;52.546;13.348;2023-02-28T05:11:16;3.10;99.90
16523;DHT22;19889;52.546;13.348;2023-02-28T05:13:43;2.90;99.90
16523;DHT22;19889;52.546;13.348;2023-02-28T05:16:10;3.10;99.90
16523;DHT22;19889;52.546;13.348;2023-02-28T05:18:39;3.10;99.90
16523;DHT22;19889;52.546;13.348;2023-02-28T05:21:06;3.10;99.90
16523;DHT22;19889;52.546;13.348;2023-02-28T05:23:33;3.10;99.90
16523;DHT22;19889;52.546;13.348;2023-02-28T05:26:00;3.10;99.90
16523;DHT22;19889;52.546;13.348;2023-02-28T05:28:27;3.10;99.90
16523;DHT22;19889;52.546;13.348;2023-02-28T05:30:54;3.70;99.90
16523;DHT22;19889;52.546;13.348;2023-02-28T05:33:21;3.10;99.90
16523;DHT22;19889;52.546;13.348;2023-02-28T05:35:49;3.10;99.90
16523;DHT22;19889;52.546;13.348;2023-02-28T05:38:16;3.10;99.90
16523;DHT22;19889;52.546;13.348;2023-02-28T05:40:43;3.10;99.90
16523;DHT22;19889;52.546;13.348;2023-02-28T05:43:11;3.00;99.90
16523;DHT22;19889;52.546;13.348;2023-02-28T05:45:38;3.00;99.90
16523;DHT22;19889;52.546;13.348;2023-02-28T05:48:05;3.00;99.90
16523;DHT22;19889;52.546;13.348;2023-02-28T05:50:32;3.00;99.90
16523;DHT22;19889;52.546;13.348;2023-02-28T05:53:01;3.30;99.90
16523;DHT22;19889;52.546;13.348;2023-02-28T05:55:28;3.00;99.90
16523;DHT22;19889;52.546;13.348;2023-02-28T05:57:55;3.70;99.90
16523;DHT22;19889;52.546;13.348;2023-02-28T06:00:22;3.90;99.90
16523;DHT22;19889;52.546;13.348;2023-02-28T06:02:49;3.00;99.90
16523;DHT22;19889;52.546;13.348;2023-02-28T06:05:17;3.00;99.90
16523;DHT22;19889;52.546;13.348;2023-02-28T06:07:44;2.90;99.90
16523;DHT22;19889;52.546;13.348;2023-02-28T06:10:13;3.00;99.90
16523;DHT22;19889;52.546;13.348;2023-02-28T06:12:41;2.80;99.90
16523;DHT22;19889;52.546;13.348;2023-02-28T06:15:12;3.00;99.90
16523;DHT22;19889;52.546;13.348;2023-02-28T06:17:40;3.00;99.90
16523;DHT22;19889;52.546;13.348;2023-02-28T06:20:08;3.00;99.90
16523;DHT22;19889;52.546;13.348;2023-02-28T06:22:36;2.90;99.90
16523;DHT22;19889;52.546;13.348;2023-02-28T06:25:03;2.90;99.90
16523;DHT22;19889;52.546;13.348;2023-02-28T06:27:32;2.90;99.90
16523;DHT22;19889;52.546;13.348;2023-02-28T06:30:00;3.00;99.90
16523;DHT22;19889;52.546;13.348;2023-02-28T06:32:27;2.90;99.90
16523;DHT22;19889;52.546;13.348;2023-02-28T06:34:54;3.10;99.90
16523;DHT22;19889;52.546;13.348;2023-02-28T06:37:22;3.40;99.90
16523;DHT22;19889;52.546;13.348;2023-02-28T06:39:51;3.00;99.90
16523;DHT22;19889;52.546;13.348;2023-02-28T06:42:18;3.00;99.90
16523;DHT22;19889;52.546;13.348;2023-02-28T06:44:47;2.90;99.90
16523;DHT22;19889;52.546;13.348;2023-02-28T06:47:14;3.00;99.90
16523;DHT22;19889;52.546;13.348;2023-02-28T06:49:41;2.90;99.90
16523;DHT22;19889;52.546;13.348;2023-02-28T06:52:08;3.30;99.90
16523;DHT22;19889;52.546;13.348;2023-02-28T06:54:36;2.90;99.90
16523;DHT22;19889;52.546;13.348;2023-02-28T06:57:03;2.70;99.90
16523;DHT22;19889;52.546;13.348;2023-02-28T06:59:30;3.00;99.90
16523;DHT22;19889;52.546;13.348;2023-02-28T07:01:59;3.00;99.90
16523;DHT22;19889;52.546;13.348;2023-02-28T07:04:27;3.00;99.90
16523;DHT22;19889;52.546;13.348;2023-02-28T07:06:54;3.00;99.90
16523;DHT22;19889;52.546;13.348;2023-02-28T07:09:22;3.00;99.90
16523;DHT22;19889;52.546;13.348;2023-02-28T07:11:49;3.00;99.90
16523;DHT22;19889;52.546;13.348;2023-02-28T07:14:16;2.90;99.90
16523;DHT22;19889;52.546;13.348;2023-02-28T07:16:43;3.90;99.90
16523;DHT22;19889;52.546;13.348;2023-02-28T07:19:12;3.10;99.90
16523;DHT22;19889;52.546;13.348;2023-02-28T07:21:39;3.10;99.90
16523;DHT22;19889;52.546;13.348;2023-02-28T07:24:06;3.10;99.90
16523;DHT22;19889;52.546;13.348;2023-02-28T07:26:33;3.20;99.90
16523;DHT22;19889;52.546;13.348;2023-02-28T07:29:00;3.20;99.90
16523;DHT22;19889;52.546;13.348;2023-02-28T07:31:27;3.20;99.90
16523;DHT22;19889;52.546;13.348;2023-02-28T07:33:54;3.30;99.90
16523;DHT22;19889;52.546;13.348;2023-02-28T07:36:23;3.30;99.90
16523;DHT22;19889;52.546;13.348;2023-02-28T07:38:50;3.40;99.90
16523;DHT22;19889;52.546;13.348;2023-02-28T07:41:22;3.40;99.90
16523;DHT22;19889;52.546;13.348;2023-02-28T07:43:53;3.40;99.90
16523;DHT22;19889;52.546;13.348;2023-02-28T07:46:20;3.50;99.90
16523;DHT22;19889;52.546;13.348;2023-02-28T07:48:47;3.50;99.90
16523;DHT22;19889;52.546;13.348;2023-02-28T07:51:14;3.50;99.90
16523;DHT22;19889;52.546;13.348;2023-02-28T07:53:42;4.30;99.90
16523;DHT22;19889;52.546;13.348;2023-02-28T07:56:09;3.60;99.90
16523;DHT22;19889;52.546;13.348;2023-02-28T07:58:37;3.60;99.90
16523;DHT22;19889;52.546;13.348;2023-02-28T08:01:07;3.70;99.90
16523;DHT22;19889;52.546;13.348;2023-02-28T08:03:36;3.70;99.90
16523;DHT22;19889;52.546;13.348;2023-02-28T08:06:04;3.80;99.90
16523;DHT22;19889;52.546;13.348;2023-02-28T08:08:31;3.90;99.90
16523;DHT22;19889;52.546;13.348;2023-02-28T08:11:01;3.80;99.90
16523;DHT22;19889;52.546;13.348;2023-02-28T08:13:29;4.00;99.90
16523;DHT22;19889;52.546;13.348;2023-02-28T08:15:56;4.10;99.90
16523;DHT22;19889;52.546;13.348;2023-02-28T08:18:23;4.30;99.90
16523;DHT22;19889;52.546;13.348;2023-02-28T08:20:51;4.40;99.90
16523;DHT22;19889;52.546;13.348;2023-02-28T08:23:17;4.50;99.90
16523;DHT22;19889;52.546;13.348;2023-02-28T08:25:44;4.60;99.90
16523;DHT22;19889;52.546;13.348;2023-02-28T08:28:13;4.50;99.90
16523;DHT22;19889;52.546;13.348;2023-02-28T08:30:40;4.90;99.90
16523;DHT22;19889;52.546;13.348;2023-02-28T08:33:07;5.10;99.90
16523;DHT22;19889;52.546;13.348;2023-02-28T08:35:36;5.10;99.90
16523;DHT22;19889;52.546;13.348;2023-02-28T08:38:03;5.80;99.90
16523;DHT22;19889;52.546;13.348;2023-02-28T08:40:30;6.00;99.90
16523;DHT22;19889;52.546;13.348;2023-02-28T08:42:57;6.30;99.90
16523;DHT22;19889;52.546;13.348;2023-02-28T08:45:25;6.60;99.90
16523;DHT22;19889;52.546;13.348;2023-02-28T08:47:54;6.80;99.90
16523;DHT22;19889;52.546;13.348;2023-02-28T08:50:22;6.80;99.90
16523;DHT22;19889;52.546;13.348;2023-02-28T08:52:49;6.70;99.90
16523;DHT22;19889;52.546;13.348;2023-02-28T08:55:16;6.60;99.90
16523;DHT22;19889;52.546;13.348;2023-02-28T08:57:43;6.50;99.90
16523;DHT22;19889;52.546;13.348;2023-02-28T09:00:11;6.40;99.90
16523;DHT22;19889;52.546;13.348;2023-02-28T09:02:40;6.20;99.90
16523;DHT22;19889;52.546;13.348;2023-02-28T09:05:09;6.40;99.90
16523;DHT22;19889;52.546;13.348;2023-02-28T09:07:36;6.00;99.90
16523;DHT22;19889;52.546;13.348;2023-02-28T09:10:04;5.90;99.90
16523;DHT22;19889;52.546;13.348;2023-02-28T09:12:33;5.80;99.90
16523;DHT22;19889;52.546;13.348;2023-02-28T09:15:01;6.00;99.90
16523;DHT22;19889;52.546;13.348;2023-02-28T09:17:28;5.70;99.90
16523;DHT22;19889;52.546;13.348;2023-02-28T09:19:56;5.40;99.90
16523;DHT22;19889;52.546;13.348;2023-02-28T09:22:23;5.50;99.90
16523;DHT22;19889;52.546;13.348;2023-02-28T09:24:50;5.40;99.90
16523;DHT22;19889;52.546;13.348;2023-02-28T09:27:17;5.30;99.90
16523;DHT22;19889;52.546;13.348;2023-02-28T09:29:44;5.60;99.90
16523;DHT22;19889;52.546;13.348;2023-02-28T09:32:11;5.40;99.90
16523;DHT22;19889;52.546;13.348;2023-02-28T09:34:39;5.20;99.90
16523;DHT22;19889;52.546;13.348;2023-02-28T09:37:07;5.20;99.90
16523;DHT22;19889;52.546;13.348;2023-02-28T09:39:34;4.70;99.90
16523;DHT22;19889;52.546;13.348;2023-02-28T09:42:02;5.10;99.90
16523;DHT22;19889;52.546;13.348;2023-02-28T09:44:33;5.10;99.90
16523;DHT22;19889;52.546;13.348;2023-02-28T09:47:07;5.10;99.90
16523;DHT22;19889;52.546;13.348;2023-02-28T09:49:39;5.00;99.90
16523;DHT22;19889;52.546;13.348;2023-02-28T09:52:13;5.00;99.90
16523;DHT22;19889;52.546;13.348;2023-02-28T09:54:42;5.10;99.90
16523;DHT22;19889;52.546;13.348;2023-02-28T09:57:17;4.60;99.90
16523;DHT22;19889;52.546;13.348;2023-02-28T09:59:58;4.80;99.90
16523;DHT22;19889;52.546;13.348;2023-02-28T10:02:53;5.00;99.90
16523;DHT22;19889;52.546;13.348;2023-02-28T10:05:30;5.10;99.90
16523;DHT22;19889;52.546;13.348;2023-02-28T10:08:07;5.10;99.90
16523;DHT22;19889;52.546;13.348;2023-02-28T10:10:40;5.30;99.90
16523;DHT22;19889;52.546;13.348;2023-02-28T10:13:17;5.00;99.90
16523;DHT22;19889;52.546;13.348;2023-02-28T10:15:50;5.10;99.90
16523;DHT22;19889;52.546;13.348;2023-02-28T10:18:23;5.70;99.90
16523;DHT22;19889;52.546;13.348;2023-02-28T10:20:51;5.00;99.90
16523;DHT22;19889;52.546;13.348;2023-02-28T10:23:27;5.10;99.90
16523;DHT22;19889;52.546;13.348;2023-02-28T10:25:58;5.10;99.90
16523;DHT22;19889;52.546;13.348;2023-02-28T10:28:26;5.30;99.90
16523;DHT22;19889;52.546;13.348;2023-02-28T10:30:57;5.10;99.90
16523;DHT22;19889;52.546;13.348;2023-02-28T10:33:28;5.10;99.90
16523;DHT22;19889;52.546;13.348;2023-02-28T10:35:55;5.20;99.90
16523;DHT22;19889;52.546;13.348;2023-02-28T10:38:26;5.10;99.90
16523;DHT22;19889;52.546;13.348;2023-02-28T10:41:04;5.10;99.90
16523;DHT22;19889;52.546;13.348;2023-02-28T10:43:31;5.20;99.90
16523;DHT22;19889;52.546;13.348;2023-02-28T10:46:02;5.20;99.90
16523;DHT22;19889;52.546;13.348;2023-02-28T10:48:33;5.20;99.90
16523;DHT22;19889;52.546;13.348;2023-02-28T10:51:01;5.20;99.90
16523;DHT22;19889;52.546;13.348;2023-02-28T10:53:37;5.10;99.90
16523;DHT22;19889;52.546;13.348;2023-02-28T10:56:12;5.30;99.90
16523;DHT22;19889;52.546;13.348;2023-02-28T10:58:51;5.20;99.90
16523;DHT22;19889;52.546;13.348;2023-02-28T11:01:20;5.30;99.90
16523;DHT22;19889;52.546;13.348;2023-02-28T11:03:48;5.30;99.90
16523;DHT22;19889;52.546;13.348;2023-02-28T11:06:17;5.00;99.90
16523;DHT22;19889;52.546;13.348;2023-02-28T11:08:49;5.30;99.90
16523;DHT22;19889;52.546;13.348;2023-02-28T11:11:17;5.00;99.90
16523;DHT22;19889;52.546;13.348;2023-02-28T11:13:46;5.30;99.90
16523;DHT22;19889;52.546;13.348;2023-02-28T11:16:16;5.20;99.90
16523;DHT22;19889;52.546;13.348;2023-02-28T11:18:46;5.30;99.90
16523;DHT22;19889;52.546;13.348;2023-02-28T11:21:21;5.20;99.90
16523;DHT22;19889;52.546;13.348;2023-02-28T11:23:52;4.90;99.90
16523;DHT22;19889;52.546;13.348;2023-02-28T11:26:38;5.10;99.90
16523;DHT22;19889;52.546;13.348;2023-02-28T11:29:17;5.20;99.90
16523;DHT22;19889;52.546;13.348;2023-02-28T11:32:05;5.40;99.90
16523;DHT22;19889;52.546;13.348;2023-02-28T11:34:35;5.50;99.90
16523;DHT22;19889;52.546;13.348;2023-02-28T11:37:05;5.50;99.90
16523;DHT22;19889;52.546;13.348;2023-02-28T11:39:37;5.50;99.90
16523;DHT22;19889;52.546;13.348;2023-02-28T11:42:29;5.50;99.90
16523;DHT22;19889;52.546;13.348;2023-02-28T11:45:18;5.50;99.90
16523;DHT22;19889;52.546;13.348;2023-02-28T11:47:50;5.50;99.90
16523;DHT22;19889;52.546;13.348;2023-02-28T11:50:38;5.50;99.90
16523;DHT22;19889;52.546;13.348;2023-02-28T11:53:17;5.70;99.90
16523;DHT22;19889;52.546;13.348;2023-02-28T11:55:51;5.50;99.90
16523;DHT22;19889;52.546;13.348;2023-02-28T11:58:32;5.50;99.90
16523;DHT22;19889;52.546;13.348;2023-02-28T12:01:13;5.50;99.90
16523;DHT22;19889;52.546;13.348;2023-02-28T12:03:45;5.30;99.90
16523;DHT22;19889;52.546;13.348;2023-02-28T12:06:20;6.50;99.90
16523;DHT22;19889;52.546;13.348;2023-02-28T12:09:04;5.50;99.90
16523;DHT22;19889;52.546;13.348;2023-02-28T12:11:44;5.50;99.90
16523;DHT22;19889;52.546;13.348;2023-02-28T12:14:43;5.20;99.90
16523;DHT22;19889;52.546;13.348;2023-02-28T12:17:20;5.50;99.90
16523;DHT22;19889;52.546;13.348;2023-02-28T12:19:55;5.50;99.90
16523;DHT22;19889;52.546;13.348;2023-02-28T12:22:29;5.50;99.90
16523;DHT22;19889;52.546;13.348;2023-02-28T12:25:20;5.50;99.90
16523;DHT22;19889;52.546;13.348;2023-02-28T12:27:49;5.50;99.90
16523;DHT22;19889;52.546;13.348;2023-02-28T12:30:22;5.50;99.90
16523;DHT22;19889;52.546;13.348;2023-02-28T12:32:54;5.50;99.90
16523;DHT22;19889;52.546;13.348;2023-02-28T12:35:26;5.60;99.90
16523;DHT22;19889;52.546;13.348;2023-02-28T12:37:57;5.60;99.90
16523;DHT22;19889;52.546;13.348;2023-02-28T12:40:28;5.60;99.90
16523;DHT22;19889;52.546;13.348;2023-02-28T12:43:04;5.70;99.90
16523;DHT22;19889;52.546;13.348;2023-02-28T12:45:40;5.70;99.90
16523;DHT22;19889;52.546;13.348;2023-02-28T12:48:11;6.90;99.90
16523;DHT22;19889;52.546;13.348;2023-02-28T12:50:41;5.70;99.90
16523;DHT22;19889;52.546;13.348;2023-02-28T12:53:15;5.70;99.90
16523;DHT22;19889;52.546;13.348;2023-02-28T12:55:49;5.70;99.90
16523;DHT22;19889;52.546;13.348;2023-02-28T12:58:28;5.70;99.90
16523;DHT22;19889;52.546;13.348;2023-02-28T13:01:29;5.50;99.90
16523;DHT22;19889;52.546;13.348;2023-02-28T13:04:25;5.70;99.90
16523;DHT22;19889;52.546;13.348;2023-02-28T13:07:06;5.80;99.90
16523;DHT22;19889;52.546;13.348;2023-02-28T13:09:38;5.60;99.90
16523;DHT22;19889;52.546;13.348;2023-02-28T13:12:13;5.80;99.90
16523;DHT22;19889;52.546;13.348;2023-02-28T13:14:42;5.80;99.90
16523;DHT22;19889;52.546;13.348;2023-02-28T13:17:17;5.70;99.90
16523;DHT22;19889;52.546;13.348;2023-02-28T13:19:56;5.80;99.90
16523;DHT22;19889;52.546;13.348;2023-02-28T13:22:39;5.60;99.90
16523;DHT22;19889;52.546;13.348;2023-02-28T13:34:39;5.80;99.90
16523;DHT22;19889;52.546;13.348;2023-02-28T13:37:35;5.80;99.90
16523;DHT22;19889;52.546;13.348;2023-02-28T13:40:30;5.90;99.90
16523;DHT22;19889;52.546;13.348;2023-02-28T13:43:02;5.90;99.90
16523;DHT22;19889;52.546;13.348;2023-02-28T13:45:29;5.90;99.90
16523;DHT22;19889;52.546;13.348;2023-02-28T13:48:04;6.00;99.90
16523;DHT22;19889;52.546;13.348;2023-02-28T13:50:36;5.90;99.90
16523;DHT22;19889;52.546;13.348;2023-02-28T13:53:39;6.00;99.90
16523;DHT22;19889;52.546;13.348;2023-02-28T13:56:22;6.00;99.90
16523;DHT22;19889;52.546;13.348;2023-02-28T13:58:54;5.80;99.90
16523;DHT22;19889;52.546;13.348;2023-02-28T14:01:36;6.00;99.90
16523;DHT22;19889;52.546;13.348;2023-02-28T14:07:21;6.00;99.90
16523;DHT22;19889;52.546;13.348;2023-02-28T14:09:59;6.00;99.90
16523;DHT22;19889;52.546;13.348;2023-02-28T14:12:56;6.40;99.90
16523;DHT22;19889;52.546;13.348;2023-02-28T14:18:34;5.90;99.90
16523;DHT22;19889;52.546;13.348;2023-02-28T14:21:13;5.90;99.90
16523;DHT22;19889;52.546;13.348;2023-02-28T14:26:58;5.90;99.90
16523;DHT22;19889;52.546;13.348;2023-02-28T14:29:37;6.00;99.90
16523;DHT22;19889;52.546;13.348;2023-02-28T14:32:15;6.00;99.90
16523;DHT22;19889;52.546;13.348;2023-02-28T14:34:53;5.90;99.90
16523;DHT22;19889;52.546;13.348;2023-02-28T14:37:27;6.00;99.90
16523;DHT22;19889;52.546;13.348;2023-02-28T14:39:55;6.00;99.90
16523;DHT22;19889;52.546;13.348;2023-02-28T14:42:31;6.00;99.90
16523;DHT22;19889;52.546;13.348;2023-02-28T14:44:58;6.00;99.90
16523;DHT22;19889;52.546;13.348;2023-02-28T14:47:28;6.00;99.90
16523;DHT22;19889;52.546;13.348;2023-02-28T14:49:58;5.80;99.90
16523;DHT22;19889;52.546;13.348;2023-02-28T14:52:28;6.00;99.90
16523;DHT22;19889;52.546;13.348;2023-02-28T14:54:57;6.00;99.90
16523;DHT22;19889;52.546;13.348;2023-02-28T14:57:27;6.00;99.90
16523;DHT22;19889;52.546;13.348;2023-02-28T14:59:59;6.00;99.90
16523;DHT22;19889;52.546;13.348;2023-02-28T15:02:31;6.10;99.90
16523;DHT22;19889;52.546;13.348;2023-02-28T15:05:03;6.50;99.90
16523;DHT22;19889;52.546;13.348;2023-02-28T15:07:38;6.10;99.90
16523;DHT22;19889;52.546;13.348;2023-02-28T15:10:11;6.10;99.90
16523;DHT22;19889;52.546;13.348;2023-02-28T15:12:40;6.10;99.90
16523;DHT22;19889;52.546;13.348;2023-02-28T15:15:15;5.60;99.90
16523;DHT22;19889;52.546;13.348;2023-02-28T15:17:45;6.20;99.90
16523;DHT22;19889;52.546;13.348;2023-02-28T15:20:14;6.20;99.90
16523;DHT22;19889;52.546;13.348;2023-02-28T15:22:45;6.20;99.90
16523;DHT22;19889;52.546;13.348;2023-02-28T15:25:17;6.50;99.90
16523;DHT22;19889;52.546;13.348;2023-02-28T15:27:47;6.50;99.90
16523;DHT22;19889;52.546;13.348;2023-02-28T15:30:17;5.90;99.60
16523;DHT22;19889;52.546;13.348;2023-02-28T15:32:45;6.10;99.30
16523;DHT22;19889;52.546;13.348;2023-02-28T15:35:29;5.80;99.20
16523;DHT22;19889;52.546;13.348;2023-02-28T15:38:01;6.10;99.40
16523;DHT22;19889;52.546;13.348;2023-02-28T15:40:30;5.70;99.30
16523;DHT22;19889;52.546;13.348;2023-02-28T15:42:59;5.90;99.50
16523;DHT22;19889;52.546;13.348;2023-02-28T15:45:37;6.10;99.40
16523;DHT22;19889;52.546;13.348;2023-02-28T15:48:15;6.10;99.50
16523;DHT22;19889;52.546;13.348;2023-02-28T15:50:44;6.10;99.60
16523;DHT22;19889;52.546;13.348;2023-02-28T15:53:18;6.40;99.70
16523;DHT22;19889;52.546;13.348;2023-02-28T15:55:53;6.20;99.60
16523;DHT22;19889;52.546;13.348;2023-02-28T15:58:21;6.20;99.50
16523;DHT22;19889;52.546;13.348;2023-02-28T16:01:03;6.20;99.50
16523;DHT22;19889;52.546;13.348;2023-02-28T16:03:39;6.40;99.50
16523;DHT22;19889;52.546;13.348;2023-02-28T16:06:33;5.70;99.30
16523;DHT22;19889;52.546;13.348;2023-02-28T16:09:03;6.20;99.10
16523;DHT22;19889;52.546;13.348;2023-02-28T16:11:35;6.20;99.30
16523;DHT22;19889;52.546;13.348;2023-02-28T16:14:03;5.70;99.20
16523;DHT22;19889;52.546;13.348;2023-02-28T16:16:31;6.40;99.50
16523;DHT22;19889;52.546;13.348;2023-02-28T16:18:58;4.30;98.90
16523;DHT22;19889;52.546;13.348;2023-02-28T16:21:25;6.50;99.50
16523;DHT22;19889;52.546;13.348;2023-02-28T16:23:52;6.10;99.40
16523;DHT22;19889;52.546;13.348;2023-02-28T16:26:23;6.00;99.50